Powell, Texas
Current Conditions -  °F | °C
As of 9:21 AM on Monday 22 Dec 2014 (Local Time) from KCRS Reporting Station
Scattered Clouds Scattered Clouds  
Wind Chill: 60°   Ceiling: Unl
Heat Index: 60°   Visibility: 10mi
Dew Point: 53°   Wind: 17mph
Humidity: 78%   Direction: 210°SSW
Pressure: 29.67"   Gusts: 28mph
Location:  32.12°N, 96.32°W
Report Text: KCRS 221521Z AUTO 21015G24KT 10SM SCT016 16/12 A2967 RMK AO2 T01560117
Loading
Personal Weather Stations






























Interactive Weather Map New forecast layout! Learn more

10-Day Weather Forecast

Advertisements
Track Severe Weather on mobile